sensor_id;sensor_type;location;lat;lon;timestamp;P1;durP1;ratioP1;P2;durP2;ratioP2
51913;SDS011;37940;53.002;6.930;2022-09-19T00:01:13;17.20;;;2.88;;
51913;SDS011;37940;53.002;6.930;2022-09-19T00:03:44;12.25;;;2.45;;
51913;SDS011;37940;53.002;6.930;2022-09-19T00:06:12;19.08;;;2.65;;
51913;SDS011;37940;53.002;6.930;2022-09-19T00:08:41;19.80;;;2.60;;
51913;SDS011;37940;53.002;6.930;2022-09-19T00:11:09;19.02;;;2.63;;
51913;SDS011;37940;53.002;6.930;2022-09-19T00:13:36;19.23;;;2.92;;
51913;SDS011;37940;53.002;6.930;2022-09-19T00:16:16;13.65;;;3.00;;
51913;SDS011;37940;53.002;6.930;2022-09-19T00:18:45;14.32;;;2.17;;
51913;SDS011;37940;53.002;6.930;2022-09-19T00:21:17;20.13;;;2.95;;
51913;SDS011;37940;53.002;6.930;2022-09-19T00:23:44;23.25;;;3.50;;
51913;SDS011;37940;53.002;6.930;2022-09-19T00:26:29;13.88;;;2.40;;
51913;SDS011;37940;53.002;6.930;2022-09-19T00:28:54;16.63;;;2.20;;
51913;SDS011;37940;53.002;6.930;2022-09-19T00:31:20;15.32;;;2.75;;
51913;SDS011;37940;53.002;6.930;2022-09-19T00:33:46;25.08;;;3.42;;
51913;SDS011;37940;53.002;6.930;2022-09-19T00:36:13;16.83;;;2.78;;
51913;SDS011;37940;53.002;6.930;2022-09-19T00:38:40;22.27;;;3.35;;
51913;SDS011;37940;53.002;6.930;2022-09-19T00:41:07;12.98;;;2.40;;
51913;SDS011;37940;53.002;6.930;2022-09-19T00:43:43;18.40;;;2.58;;
51913;SDS011;37940;53.002;6.930;2022-09-19T00:46:12;12.88;;;2.70;;
51913;SDS011;37940;53.002;6.930;2022-09-19T00:48:38;15.25;;;2.72;;
51913;SDS011;37940;53.002;6.930;2022-09-19T00:51:06;15.98;;;3.00;;
51913;SDS011;37940;53.002;6.930;2022-09-19T00:53:42;11.73;;;2.33;;
51913;SDS011;37940;53.002;6.930;2022-09-19T00:56:09;12.98;;;2.65;;
51913;SDS011;37940;53.002;6.930;2022-09-19T00:58:37;14.38;;;2.50;;
51913;SDS011;37940;53.002;6.930;2022-09-19T01:01:08;15.90;;;3.38;;
51913;SDS011;37940;53.002;6.930;2022-09-19T01:03:35;9.75;;;2.05;;
51913;SDS011;37940;53.002;6.930;2022-09-19T01:14:32;19.27;;;3.42;;
51913;SDS011;37940;53.002;6.930;2022-09-19T01:17:23;22.55;;;3.33;;
51913;SDS011;37940;53.002;6.930;2022-09-19T01:28:27;17.83;;;3.13;;
51913;SDS011;37940;53.002;6.930;2022-09-19T01:31:02;17.85;;;2.65;;
51913;SDS011;37940;53.002;6.930;2022-09-19T01:36:28;21.63;;;3.15;;
51913;SDS011;37940;53.002;6.930;2022-09-19T01:38:58;23.63;;;3.78;;
51913;SDS011;37940;53.002;6.930;2022-09-19T01:41:27;29.75;;;3.65;;
51913;SDS011;37940;53.002;6.930;2022-09-19T01:43:54;19.50;;;3.30;;
51913;SDS011;37940;53.002;6.930;2022-09-19T01:51:51;22.80;;;2.85;;
51913;SDS011;37940;53.002;6.930;2022-09-19T01:54:33;19.95;;;3.85;;
51913;SDS011;37940;53.002;6.930;2022-09-19T01:57:14;16.83;;;2.80;;
51913;SDS011;37940;53.002;6.930;2022-09-19T02:10:28;22.65;;;3.67;;
51913;SDS011;37940;53.002;6.930;2022-09-19T02:13:02;21.58;;;3.70;;
51913;SDS011;37940;53.002;6.930;2022-09-19T02:15:31;17.30;;;2.80;;
51913;SDS011;37940;53.002;6.930;2022-09-19T02:20:56;21.52;;;3.30;;
51913;SDS011;37940;53.002;6.930;2022-09-19T02:23:37;21.35;;;4.30;;
51913;SDS011;37940;53.002;6.930;2022-09-19T02:26:07;22.27;;;3.05;;
51913;SDS011;37940;53.002;6.930;2022-09-19T02:28:38;23.13;;;3.55;;
51913;SDS011;37940;53.002;6.930;2022-09-19T02:31:07;21.08;;;3.15;;
51913;SDS011;37940;53.002;6.930;2022-09-19T02:33:34;26.02;;;3.25;;
51913;SDS011;37940;53.002;6.930;2022-09-19T02:36:15;19.08;;;3.20;;
51913;SDS011;37940;53.002;6.930;2022-09-19T02:41:32;18.95;;;3.05;;
51913;SDS011;37940;53.002;6.930;2022-09-19T02:46:33;27.33;;;3.20;;
51913;SDS011;37940;53.002;6.930;2022-09-19T02:49:11;20.57;;;3.13;;
51913;SDS011;37940;53.002;6.930;2022-09-19T02:51:47;18.25;;;3.00;;
51913;SDS011;37940;53.002;6.930;2022-09-19T02:54:21;20.10;;;2.90;;
51913;SDS011;37940;53.002;6.930;2022-09-19T02:56:51;23.95;;;3.83;;
51913;SDS011;37940;53.002;6.930;2022-09-19T02:59:21;19.10;;;2.90;;
51913;SDS011;37940;53.002;6.930;2022-09-19T03:01:53;26.45;;;3.25;;
51913;SDS011;37940;53.002;6.930;2022-09-19T03:04:27;22.30;;;3.67;;
51913;SDS011;37940;53.002;6.930;2022-09-19T03:07:04;18.10;;;3.65;;
51913;SDS011;37940;53.002;6.930;2022-09-19T03:09:37;18.92;;;2.95;;
51913;SDS011;37940;53.002;6.930;2022-09-19T03:12:21;17.38;;;3.20;;
51913;SDS011;37940;53.002;6.930;2022-09-19T03:14:58;15.80;;;3.28;;
51913;SDS011;37940;53.002;6.930;2022-09-19T03:17:25;18.15;;;3.00;;
51913;SDS011;37940;53.002;6.930;2022-09-19T03:19:54;21.15;;;2.92;;
51913;SDS011;37940;53.002;6.930;2022-09-19T03:22:23;14.90;;;2.75;;
51913;SDS011;37940;53.002;6.930;2022-09-19T03:24:50;15.43;;;2.67;;
51913;SDS011;37940;53.002;6.930;2022-09-19T03:27:16;17.50;;;2.50;;
51913;SDS011;37940;53.002;6.930;2022-09-19T03:29:42;15.73;;;2.83;;
51913;SDS011;37940;53.002;6.930;2022-09-19T03:32:08;19.95;;;2.67;;
51913;SDS011;37940;53.002;6.930;2022-09-19T03:34:34;14.52;;;2.53;;
51913;SDS011;37940;53.002;6.930;2022-09-19T03:37:00;13.77;;;2.50;;
51913;SDS011;37940;53.002;6.930;2022-09-19T03:39:27;17.40;;;2.97;;
51913;SDS011;37940;53.002;6.930;2022-09-19T03:41:53;10.68;;;2.35;;
51913;SDS011;37940;53.002;6.930;2022-09-19T03:44:19;17.17;;;2.83;;
51913;SDS011;37940;53.002;6.930;2022-09-19T03:46:45;14.85;;;2.80;;
51913;SDS011;37940;53.002;6.930;2022-09-19T03:49:12;12.80;;;2.22;;
51913;SDS011;37940;53.002;6.930;2022-09-19T03:51:38;14.27;;;2.80;;
51913;SDS011;37940;53.002;6.930;2022-09-19T03:54:05;11.35;;;2.20;;
51913;SDS011;37940;53.002;6.930;2022-09-19T03:56:31;15.30;;;2.35;;
51913;SDS011;37940;53.002;6.930;2022-09-19T03:58:56;16.10;;;2.60;;
51913;SDS011;37940;53.002;6.930;2022-09-19T04:01:22;18.35;;;3.00;;
51913;SDS011;37940;53.002;6.930;2022-09-19T04:03:48;21.75;;;3.22;;
51913;SDS011;37940;53.002;6.930;2022-09-19T04:06:14;18.65;;;3.38;;
51913;SDS011;37940;53.002;6.930;2022-09-19T04:08:41;11.98;;;2.60;;
51913;SDS011;37940;53.002;6.930;2022-09-19T04:11:07;16.35;;;3.13;;
51913;SDS011;37940;53.002;6.930;2022-09-19T04:13:34;18.88;;;3.33;;
51913;SDS011;37940;53.002;6.930;2022-09-19T04:16:01;15.25;;;2.63;;
51913;SDS011;37940;53.002;6.930;2022-09-19T04:18:27;15.63;;;2.85;;
51913;SDS011;37940;53.002;6.930;2022-09-19T04:20:53;19.70;;;3.05;;
51913;SDS011;37940;53.002;6.930;2022-09-19T04:23:21;16.02;;;3.00;;
51913;SDS011;37940;53.002;6.930;2022-09-19T04:25:48;16.05;;;2.63;;
51913;SDS011;37940;53.002;6.930;2022-09-19T04:28:14;18.15;;;2.97;;
51913;SDS011;37940;53.002;6.930;2022-09-19T04:30:42;14.32;;;2.95;;
51913;SDS011;37940;53.002;6.930;2022-09-19T04:33:10;20.27;;;3.10;;
51913;SDS011;37940;53.002;6.930;2022-09-19T04:35:37;22.65;;;3.38;;
51913;SDS011;37940;53.002;6.930;2022-09-19T04:38:04;23.02;;;3.75;;
51913;SDS011;37940;53.002;6.930;2022-09-19T04:40:41;22.38;;;3.65;;
51913;SDS011;37940;53.002;6.930;2022-09-19T04:43:12;18.48;;;2.95;;
51913;SDS011;37940;53.002;6.930;2022-09-19T04:45:39;20.80;;;2.97;;
51913;SDS011;37940;53.002;6.930;2022-09-19T04:48:08;23.70;;;3.55;;
51913;SDS011;37940;53.002;6.930;2022-09-19T04:50:34;17.27;;;3.30;;
51913;SDS011;37940;53.002;6.930;2022-09-19T04:53:00;22.70;;;3.60;;
51913;SDS011;37940;53.002;6.930;2022-09-19T04:55:27;18.02;;;3.28;;
51913;SDS011;37940;53.002;6.930;2022-09-19T04:57:54;20.73;;;3.40;;
51913;SDS011;37940;53.002;6.930;2022-09-19T05:00:20;19.67;;;3.47;;
51913;SDS011;37940;53.002;6.930;2022-09-19T05:03:10;21.63;;;3.10;;
51913;SDS011;37940;53.002;6.930;2022-09-19T05:05:39;22.63;;;4.00;;
51913;SDS011;37940;53.002;6.930;2022-09-19T05:08:10;21.15;;;3.70;;
51913;SDS011;37940;53.002;6.930;2022-09-19T05:10:37;17.65;;;3.88;;
51913;SDS011;37940;53.002;6.930;2022-09-19T05:13:03;18.35;;;3.47;;
51913;SDS011;37940;53.002;6.930;2022-09-19T05:15:30;19.98;;;3.45;;
51913;SDS011;37940;53.002;6.930;2022-09-19T05:17:56;18.05;;;3.50;;
51913;SDS011;37940;53.002;6.930;2022-09-19T05:20:23;25.15;;;3.45;;
51913;SDS011;37940;53.002;6.930;2022-09-19T05:22:56;17.40;;;3.08;;
51913;SDS011;37940;53.002;6.930;2022-09-19T05:25:27;23.52;;;3.90;;
51913;SDS011;37940;53.002;6.930;2022-09-19T05:27:58;16.27;;;3.17;;
51913;SDS011;37940;53.002;6.930;2022-09-19T05:30:29;20.70;;;3.28;;
51913;SDS011;37940;53.002;6.930;2022-09-19T05:32:56;19.25;;;3.13;;
51913;SDS011;37940;53.002;6.930;2022-09-19T05:35:23;18.10;;;2.75;;
51913;SDS011;37940;53.002;6.930;2022-09-19T05:37:48;13.55;;;2.58;;
51913;SDS011;37940;53.002;6.930;2022-09-19T05:40:15;21.92;;;3.15;;
51913;SDS011;37940;53.002;6.930;2022-09-19T05:42:41;19.95;;;3.95;;
51913;SDS011;37940;53.002;6.930;2022-09-19T05:45:11;16.98;;;3.00;;
51913;SDS011;37940;53.002;6.930;2022-09-19T05:47:37;18.95;;;2.95;;
51913;SDS011;37940;53.002;6.930;2022-09-19T05:50:05;16.77;;;2.92;;
51913;SDS011;37940;53.002;6.930;2022-09-19T05:52:36;20.40;;;2.95;;
51913;SDS011;37940;53.002;6.930;2022-09-19T05:55:21;13.10;;;2.90;;
51913;SDS011;37940;53.002;6.930;2022-09-19T05:57:51;22.15;;;3.55;;
51913;SDS011;37940;53.002;6.930;2022-09-19T06:00:19;19.45;;;3.22;;
51913;SDS011;37940;53.002;6.930;2022-09-19T06:02:55;23.13;;;2.95;;
51913;SDS011;37940;53.002;6.930;2022-09-19T06:05:23;23.77;;;3.75;;
51913;SDS011;37940;53.002;6.930;2022-09-19T06:07:50;26.23;;;3.72;;
51913;SDS011;37940;53.002;6.930;2022-09-19T06:10:17;22.13;;;3.78;;
51913;SDS011;37940;53.002;6.930;2022-09-19T06:12:44;22.95;;;4.20;;
51913;SDS011;37940;53.002;6.930;2022-09-19T06:15:10;21.13;;;3.80;;
51913;SDS011;37940;53.002;6.930;2022-09-19T06:17:36;20.73;;;3.45;;
51913;SDS011;37940;53.002;6.930;2022-09-19T06:20:02;23.33;;;3.92;;
51913;SDS011;37940;53.002;6.930;2022-09-19T06:22:28;21.40;;;3.20;;
51913;SDS011;37940;53.002;6.930;2022-09-19T06:24:54;22.25;;;3.75;;
51913;SDS011;37940;53.002;6.930;2022-09-19T06:27:20;20.25;;;3.65;;
51913;SDS011;37940;53.002;6.930;2022-09-19T06:29:46;16.30;;;2.72;;
51913;SDS011;37940;53.002;6.930;2022-09-19T06:32:12;18.52;;;3.75;;
51913;SDS011;37940;53.002;6.930;2022-09-19T06:34:38;19.40;;;3.10;;
51913;SDS011;37940;53.002;6.930;2022-09-19T06:37:04;16.60;;;2.85;;
51913;SDS011;37940;53.002;6.930;2022-09-19T06:39:29;21.77;;;3.45;;
51913;SDS011;37940;53.002;6.930;2022-09-19T06:41:55;23.33;;;3.53;;
51913;SDS011;37940;53.002;6.930;2022-09-19T06:44:21;21.38;;;3.75;;
51913;SDS011;37940;53.002;6.930;2022-09-19T06:46:48;20.48;;;3.17;;
51913;SDS011;37940;53.002;6.930;2022-09-19T06:49:14;27.75;;;3.22;;
51913;SDS011;37940;53.002;6.930;2022-09-19T06:51:39;24.40;;;3.17;;
51913;SDS011;37940;53.002;6.930;2022-09-19T06:54:05;20.73;;;3.28;;
51913;SDS011;37940;53.002;6.930;2022-09-19T06:56:31;23.95;;;3.58;;
51913;SDS011;37940;53.002;6.930;2022-09-19T06:58:56;19.80;;;3.35;;
51913;SDS011;37940;53.002;6.930;2022-09-19T07:01:22;22.67;;;3.28;;
51913;SDS011;37940;53.002;6.930;2022-09-19T07:03:51;22.42;;;3.67;;
51913;SDS011;37940;53.002;6.930;2022-09-19T07:06:17;25.02;;;3.78;;
51913;SDS011;37940;53.002;6.930;2022-09-19T07:08:43;19.25;;;3.58;;
51913;SDS011;37940;53.002;6.930;2022-09-19T07:11:09;19.38;;;3.30;;
51913;SDS011;37940;53.002;6.930;2022-09-19T07:13:35;22.38;;;4.15;;
51913;SDS011;37940;53.002;6.930;2022-09-19T07:16:00;17.17;;;3.13;;
51913;SDS011;37940;53.002;6.930;2022-09-19T07:18:27;21.80;;;3.58;;
51913;SDS011;37940;53.002;6.930;2022-09-19T07:20:53;20.00;;;3.13;;
51913;SDS011;37940;53.002;6.930;2022-09-19T07:23:19;15.43;;;3.35;;
51913;SDS011;37940;53.002;6.930;2022-09-19T07:25:46;19.98;;;3.03;;
51913;SDS011;37940;53.002;6.930;2022-09-19T07:28:14;15.90;;;3.03;;
51913;SDS011;37940;53.002;6.930;2022-09-19T07:30:41;16.70;;;3.88;;
51913;SDS011;37940;53.002;6.930;2022-09-19T07:33:12;16.17;;;3.10;;
51913;SDS011;37940;53.002;6.930;2022-09-19T07:35:40;16.85;;;2.75;;
51913;SDS011;37940;53.002;6.930;2022-09-19T07:38:08;11.68;;;2.60;;
51913;SDS011;37940;53.002;6.930;2022-09-19T07:40:37;16.83;;;2.97;;
51913;SDS011;37940;53.002;6.930;2022-09-19T07:43:04;11.93;;;2.42;;
51913;SDS011;37940;53.002;6.930;2022-09-19T07:45:34;17.63;;;3.25;;
51913;SDS011;37940;53.002;6.930;2022-09-19T07:48:01;19.65;;;3.63;;
51913;SDS011;37940;53.002;6.930;2022-09-19T07:50:27;17.92;;;3.40;;
51913;SDS011;37940;53.002;6.930;2022-09-19T07:53:01;24.75;;;4.22;;
51913;SDS011;37940;53.002;6.930;2022-09-19T07:55:51;15.15;;;3.10;;
51913;SDS011;37940;53.002;6.930;2022-09-19T07:58:18;23.55;;;3.67;;
51913;SDS011;37940;53.002;6.930;2022-09-19T08:00:45;12.65;;;3.17;;
51913;SDS011;37940;53.002;6.930;2022-09-19T08:03:12;17.80;;;2.97;;
51913;SDS011;37940;53.002;6.930;2022-09-19T08:05:41;15.23;;;2.92;;
51913;SDS011;37940;53.002;6.930;2022-09-19T08:08:11;13.30;;;3.05;;
51913;SDS011;37940;53.002;6.930;2022-09-19T08:10:39;14.93;;;3.05;;
51913;SDS011;37940;53.002;6.930;2022-09-19T08:13:06;17.67;;;4.05;;
51913;SDS011;37940;53.002;6.930;2022-09-19T08:15:33;12.80;;;2.70;;
51913;SDS011;37940;53.002;6.930;2022-09-19T08:20:30;14.57;;;2.75;;
51913;SDS011;37940;53.002;6.930;2022-09-19T08:22:58;13.27;;;2.70;;
51913;SDS011;37940;53.002;6.930;2022-09-19T08:25:26;16.25;;;3.13;;
51913;SDS011;37940;53.002;6.930;2022-09-19T08:27:53;13.38;;;3.33;;
51913;SDS011;37940;53.002;6.930;2022-09-19T08:30:21;11.10;;;2.95;;
51913;SDS011;37940;53.002;6.930;2022-09-19T08:32:48;12.90;;;2.83;;
51913;SDS011;37940;53.002;6.930;2022-09-19T08:35:15;10.38;;;2.65;;
51913;SDS011;37940;53.002;6.930;2022-09-19T08:37:45;18.08;;;4.18;;
51913;SDS011;37940;53.002;6.930;2022-09-19T08:40:12;14.98;;;2.97;;
51913;SDS011;37940;53.002;6.930;2022-09-19T08:42:47;12.07;;;3.03;;
51913;SDS011;37940;53.002;6.930;2022-09-19T08:48:00;17.98;;;2.95;;
51913;SDS011;37940;53.002;6.930;2022-09-19T08:50:31;15.02;;;2.90;;
51913;SDS011;37940;53.002;6.930;2022-09-19T08:53:00;13.32;;;3.47;;
51913;SDS011;37940;53.002;6.930;2022-09-19T08:55:30;14.15;;;3.00;;
51913;SDS011;37940;53.002;6.930;2022-09-19T09:00:39;12.70;;;2.78;;
51913;SDS011;37940;53.002;6.930;2022-09-19T09:03:12;18.00;;;3.60;;
51913;SDS011;37940;53.002;6.930;2022-09-19T09:08:08;16.20;;;3.33;;
51913;SDS011;37940;53.002;6.930;2022-09-19T09:10:58;14.32;;;3.28;;
51913;SDS011;37940;53.002;6.930;2022-09-19T09:13:56;13.30;;;2.97;;
51913;SDS011;37940;53.002;6.930;2022-09-19T09:16:40;15.07;;;3.30;;
51913;SDS011;37940;53.002;6.930;2022-09-19T09:24:38;20.73;;;3.28;;
51913;SDS011;37940;53.002;6.930;2022-09-19T09:27:09;13.70;;;3.13;;
51913;SDS011;37940;53.002;6.930;2022-09-19T09:29:43;11.75;;;2.50;;
51913;SDS011;37940;53.002;6.930;2022-09-19T09:34:54;12.13;;;2.92;;
51913;SDS011;37940;53.002;6.930;2022-09-19T09:40:31;12.05;;;2.60;;
51913;SDS011;37940;53.002;6.930;2022-09-19T09:43:20;15.65;;;2.95;;
51913;SDS011;37940;53.002;6.930;2022-09-19T09:45:50;9.63;;;2.58;;
51913;SDS011;37940;53.002;6.930;2022-09-19T09:59:37;14.30;;;3.03;;
51913;SDS011;37940;53.002;6.930;2022-09-19T10:05:46;14.63;;;3.17;;
51913;SDS011;37940;53.002;6.930;2022-09-19T10:08:26;14.88;;;3.03;;
51913;SDS011;37940;53.002;6.930;2022-09-19T10:11:19;14.63;;;3.10;;
51913;SDS011;37940;53.002;6.930;2022-09-19T10:14:01;12.05;;;2.55;;
51913;SDS011;37940;53.002;6.930;2022-09-19T10:16:30;11.55;;;2.63;;
51913;SDS011;37940;53.002;6.930;2022-09-19T10:21:46;8.50;;;1.88;;
51913;SDS011;37940;53.002;6.930;2022-09-19T10:27:12;11.05;;;2.13;;
51913;SDS011;37940;53.002;6.930;2022-09-19T10:29:54;10.18;;;2.28;;
51913;SDS011;37940;53.002;6.930;2022-09-19T10:32:28;10.07;;;2.30;;
51913;SDS011;37940;53.002;6.930;2022-09-19T10:34:59;8.23;;;2.10;;
51913;SDS011;37940;53.002;6.930;2022-09-19T10:37:25;8.73;;;2.15;;
51913;SDS011;37940;53.002;6.930;2022-09-19T10:39:56;8.88;;;2.30;;
51913;SDS011;37940;53.002;6.930;2022-09-19T10:45:12;10.23;;;2.38;;
51913;SDS011;37940;53.002;6.930;2022-09-19T10:47:40;10.45;;;2.70;;
51913;SDS011;37940;53.002;6.930;2022-09-19T10:50:11;12.30;;;2.63;;
51913;SDS011;37940;53.002;6.930;2022-09-19T10:52:40;9.43;;;2.08;;
51913;SDS011;37940;53.002;6.930;2022-09-19T10:55:43;12.00;;;2.33;;
51913;SDS011;37940;53.002;6.930;2022-09-19T10:58:03;10.18;;;2.30;;
51913;SDS011;37940;53.002;6.930;2022-09-19T11:00:45;9.68;;;2.40;;
51913;SDS011;37940;53.002;6.930;2022-09-19T11:03:18;7.80;;;2.10;;
51913;SDS011;37940;53.002;6.930;2022-09-19T11:06:02;11.57;;;2.90;;
51913;SDS011;37940;53.002;6.930;2022-09-19T11:08:28;10.45;;;2.63;;
51913;SDS011;37940;53.002;6.930;2022-09-19T11:10:55;12.15;;;2.70;;
51913;SDS011;37940;53.002;6.930;2022-09-19T11:13:21;9.48;;;2.47;;
51913;SDS011;37940;53.002;6.930;2022-09-19T11:18:48;15.27;;;2.90;;
51913;SDS011;37940;53.002;6.930;2022-09-19T11:27:16;11.40;;;2.90;;
51913;SDS011;37940;53.002;6.930;2022-09-19T11:30:02;12.07;;;2.60;;
51913;SDS011;37940;53.002;6.930;2022-09-19T11:32:37;8.95;;;2.25;;
51913;SDS011;37940;53.002;6.930;2022-09-19T11:41:04;8.55;;;1.98;;
51913;SDS011;37940;53.002;6.930;2022-09-19T11:49:12;10.20;;;2.75;;
51913;SDS011;37940;53.002;6.930;2022-09-19T12:00:57;13.27;;;3.00;;
51913;SDS011;37940;53.002;6.930;2022-09-19T12:12:29;9.65;;;2.50;;
51913;SDS011;37940;53.002;6.930;2022-09-19T12:15:00;12.20;;;2.70;;
51913;SDS011;37940;53.002;6.930;2022-09-19T12:17:29;9.95;;;2.30;;
51913;SDS011;37940;53.002;6.930;2022-09-19T12:20:09;11.93;;;2.83;;
51913;SDS011;37940;53.002;6.930;2022-09-19T12:22:39;10.07;;;2.33;;
51913;SDS011;37940;53.002;6.930;2022-09-19T12:25:53;11.40;;;2.30;;
51913;SDS011;37940;53.002;6.930;2022-09-19T12:28:22;7.22;;;2.05;;
51913;SDS011;37940;53.002;6.930;2022-09-19T12:30:54;13.13;;;2.90;;
51913;SDS011;37940;53.002;6.930;2022-09-19T12:33:34;10.95;;;2.30;;
51913;SDS011;37940;53.002;6.930;2022-09-19T12:38:56;9.48;;;2.15;;
51913;SDS011;37940;53.002;6.930;2022-09-19T12:41:42;8.68;;;2.20;;
51913;SDS011;37940;53.002;6.930;2022-09-19T12:44:33;8.63;;;2.45;;
51913;SDS011;37940;53.002;6.930;2022-09-19T12:50:24;13.90;;;2.28;;
51913;SDS011;37940;53.002;6.930;2022-09-19T12:53:09;11.38;;;2.70;;
51913;SDS011;37940;53.002;6.930;2022-09-19T12:55:46;11.25;;;2.50;;
51913;SDS011;37940;53.002;6.930;2022-09-19T13:01:24;10.43;;;2.92;;
51913;SDS011;37940;53.002;6.930;2022-09-19T13:03:56;11.05;;;2.72;;
51913;SDS011;37940;53.002;6.930;2022-09-19T13:07:05;14.82;;;2.47;;
51913;SDS011;37940;53.002;6.930;2022-09-19T13:09:45;13.25;;;2.75;;
51913;SDS011;37940;53.002;6.930;2022-09-19T13:12:18;9.73;;;2.40;;
51913;SDS011;37940;53.002;6.930;2022-09-19T13:17:17;16.73;;;2.90;;
51913;SDS011;37940;53.002;6.930;2022-09-19T13:20:02;13.15;;;2.63;;
51913;SDS011;37940;53.002;6.930;2022-09-19T13:22:59;10.60;;;2.55;;
51913;SDS011;37940;53.002;6.930;2022-09-19T13:25:45;10.98;;;2.42;;
51913;SDS011;37940;53.002;6.930;2022-09-19T13:30:46;9.38;;;1.83;;
51913;SDS011;37940;53.002;6.930;2022-09-19T13:36:07;9.27;;;2.22;;
51913;SDS011;37940;53.002;6.930;2022-09-19T13:38:38;11.05;;;2.40;;
51913;SDS011;37940;53.002;6.930;2022-09-19T13:46:57;11.25;;;2.50;;
51913;SDS011;37940;53.002;6.930;2022-09-19T13:49:48;13.38;;;2.45;;
51913;SDS011;37940;53.002;6.930;2022-09-19T13:55:06;7.38;;;2.15;;
51913;SDS011;37940;53.002;6.930;2022-09-19T13:58:09;8.10;;;1.90;;
51913;SDS011;37940;53.002;6.930;2022-09-19T14:03:41;9.20;;;2.25;;
51913;SDS011;37940;53.002;6.930;2022-09-19T14:06:23;12.30;;;2.75;;
51913;SDS011;37940;53.002;6.930;2022-09-19T14:11:46;8.23;;;2.50;;
51913;SDS011;37940;53.002;6.930;2022-09-19T14:25:00;7.18;;;2.03;;
51913;SDS011;37940;53.002;6.930;2022-09-19T14:27:36;8.93;;;2.10;;
51913;SDS011;37940;53.002;6.930;2022-09-19T14:42:24;7.38;;;1.90;;
51913;SDS011;37940;53.002;6.930;2022-09-19T14:51:08;10.90;;;2.15;;
51913;SDS011;37940;53.002;6.930;2022-09-19T14:54:00;10.02;;;2.47;;
51913;SDS011;37940;53.002;6.930;2022-09-19T14:56:27;13.20;;;2.78;;
51913;SDS011;37940;53.002;6.930;2022-09-19T14:58:53;7.15;;;2.15;;
51913;SDS011;37940;53.002;6.930;2022-09-19T15:01:22;7.78;;;1.95;;
51913;SDS011;37940;53.002;6.930;2022-09-19T15:04:11;9.75;;;2.30;;
51913;SDS011;37940;53.002;6.930;2022-09-19T15:06:47;10.60;;;2.13;;
51913;SDS011;37940;53.002;6.930;2022-09-19T15:09:23;11.20;;;2.33;;
51913;SDS011;37940;53.002;6.930;2022-09-19T15:12:13;9.88;;;2.63;;
51913;SDS011;37940;53.002;6.930;2022-09-19T15:14:45;10.27;;;2.70;;
51913;SDS011;37940;53.002;6.930;2022-09-19T15:17:13;7.85;;;2.42;;
51913;SDS011;37940;53.002;6.930;2022-09-19T15:19:42;12.93;;;2.60;;
51913;SDS011;37940;53.002;6.930;2022-09-19T15:24:53;10.73;;;2.20;;
51913;SDS011;37940;53.002;6.930;2022-09-19T15:27:22;13.65;;;2.60;;
51913;SDS011;37940;53.002;6.930;2022-09-19T15:29:50;10.63;;;2.38;;
51913;SDS011;37940;53.002;6.930;2022-09-19T15:34:53;12.98;;;2.65;;
51913;SDS011;37940;53.002;6.930;2022-09-19T15:37:20;11.68;;;2.38;;
51913;SDS011;37940;53.002;6.930;2022-09-19T15:39:48;8.20;;;1.98;;
51913;SDS011;37940;53.002;6.930;2022-09-19T15:42:15;8.90;;;1.90;;
51913;SDS011;37940;53.002;6.930;2022-09-19T15:44:42;8.88;;;2.00;;
51913;SDS011;37940;53.002;6.930;2022-09-19T15:47:17;9.75;;;2.20;;
51913;SDS011;37940;53.002;6.930;2022-09-19T15:49:46;9.45;;;2.17;;
51913;SDS011;37940;53.002;6.930;2022-09-19T15:52:28;9.02;;;2.78;;
51913;SDS011;37940;53.002;6.930;2022-09-19T15:55:01;10.10;;;2.30;;
51913;SDS011;37940;53.002;6.930;2022-09-19T15:57:28;10.82;;;2.83;;
51913;SDS011;37940;53.002;6.930;2022-09-19T16:00:05;9.63;;;2.15;;
51913;SDS011;37940;53.002;6.930;2022-09-19T16:02:47;7.22;;;1.98;;
51913;SDS011;37940;53.002;6.930;2022-09-19T16:05:18;9.27;;;2.13;;
51913;SDS011;37940;53.002;6.930;2022-09-19T16:07:49;11.98;;;2.33;;
51913;SDS011;37940;53.002;6.930;2022-09-19T16:10:37;9.20;;;2.50;;
51913;SDS011;37940;53.002;6.930;2022-09-19T16:16:04;11.02;;;2.20;;
51913;SDS011;37940;53.002;6.930;2022-09-19T16:18:54;15.85;;;2.55;;
51913;SDS011;37940;53.002;6.930;2022-09-19T16:21:27;9.55;;;2.40;;
51913;SDS011;37940;53.002;6.930;2022-09-19T16:24:07;10.32;;;2.25;;
51913;SDS011;37940;53.002;6.930;2022-09-19T16:26:42;10.63;;;2.17;;
51913;SDS011;37940;53.002;6.930;2022-09-19T16:29:11;13.05;;;2.03;;
51913;SDS011;37940;53.002;6.930;2022-09-19T16:31:38;8.40;;;2.53;;
51913;SDS011;37940;53.002;6.930;2022-09-19T16:36:54;8.88;;;2.00;;
51913;SDS011;37940;53.002;6.930;2022-09-19T16:39:27;10.38;;;2.15;;
51913;SDS011;37940;53.002;6.930;2022-09-19T16:47:09;9.30;;;2.33;;
51913;SDS011;37940;53.002;6.930;2022-09-19T16:49:39;8.68;;;1.75;;
51913;SDS011;37940;53.002;6.930;2022-09-19T16:52:08;8.05;;;1.77;;
51913;SDS011;37940;53.002;6.930;2022-09-19T16:57:17;9.63;;;2.00;;
51913;SDS011;37940;53.002;6.930;2022-09-19T16:59:48;7.30;;;1.92;;
51913;SDS011;37940;53.002;6.930;2022-09-19T17:02:23;8.88;;;1.90;;
51913;SDS011;37940;53.002;6.930;2022-09-19T17:04:53;6.70;;;2.00;;
51913;SDS011;37940;53.002;6.930;2022-09-19T17:07:20;8.15;;;1.95;;
51913;SDS011;37940;53.002;6.930;2022-09-19T17:09:47;12.48;;;2.38;;
51913;SDS011;37940;53.002;6.930;2022-09-19T17:12:13;8.50;;;2.03;;
51913;SDS011;37940;53.002;6.930;2022-09-19T17:14:41;11.18;;;2.17;;
51913;SDS011;37940;53.002;6.930;2022-09-19T17:17:09;10.30;;;2.10;;
51913;SDS011;37940;53.002;6.930;2022-09-19T17:19:37;13.13;;;2.20;;
51913;SDS011;37940;53.002;6.930;2022-09-19T17:22:04;11.05;;;2.13;;
51913;SDS011;37940;53.002;6.930;2022-09-19T17:24:29;12.20;;;2.05;;
51913;SDS011;37940;53.002;6.930;2022-09-19T17:26:55;11.18;;;2.00;;
51913;SDS011;37940;53.002;6.930;2022-09-19T17:29:21;9.65;;;2.10;;
51913;SDS011;37940;53.002;6.930;2022-09-19T17:31:47;11.30;;;2.00;;
51913;SDS011;37940;53.002;6.930;2022-09-19T17:34:13;10.00;;;1.83;;
51913;SDS011;37940;53.002;6.930;2022-09-19T17:36:40;11.00;;;3.35;;
51913;SDS011;37940;53.002;6.930;2022-09-19T17:39:06;9.45;;;2.40;;
51913;SDS011;37940;53.002;6.930;2022-09-19T17:41:32;9.65;;;2.40;;
51913;SDS011;37940;53.002;6.930;2022-09-19T17:43:59;10.65;;;2.45;;
51913;SDS011;37940;53.002;6.930;2022-09-19T17:46:26;8.90;;;2.15;;
51913;SDS011;37940;53.002;6.930;2022-09-19T17:48:52;13.75;;;3.72;;
51913;SDS011;37940;53.002;6.930;2022-09-19T17:51:18;12.90;;;3.25;;
51913;SDS011;37940;53.002;6.930;2022-09-19T17:53:45;9.85;;;2.15;;
51913;SDS011;37940;53.002;6.930;2022-09-19T17:56:21;9.48;;;2.28;;
51913;SDS011;37940;53.002;6.930;2022-09-19T17:58:52;8.60;;;2.10;;
51913;SDS011;37940;53.002;6.930;2022-09-19T18:01:22;12.70;;;2.15;;
51913;SDS011;37940;53.002;6.930;2022-09-19T18:04:08;11.80;;;2.13;;
51913;SDS011;37940;53.002;6.930;2022-09-19T18:06:35;9.98;;;2.17;;
51913;SDS011;37940;53.002;6.930;2022-09-19T18:09:02;12.60;;;2.00;;
51913;SDS011;37940;53.002;6.930;2022-09-19T18:11:33;12.18;;;1.98;;
51913;SDS011;37940;53.002;6.930;2022-09-19T18:13:59;11.80;;;2.33;;
51913;SDS011;37940;53.002;6.930;2022-09-19T18:16:31;12.38;;;2.25;;
51913;SDS011;37940;53.002;6.930;2022-09-19T18:18:58;9.20;;;2.25;;
51913;SDS011;37940;53.002;6.930;2022-09-19T18:21:27;11.90;;;2.10;;
51913;SDS011;37940;53.002;6.930;2022-09-19T18:23:53;9.75;;;2.00;;
51913;SDS011;37940;53.002;6.930;2022-09-19T18:26:22;11.15;;;2.13;;